createdAt,value
2023-04-27T00:01:13.577Z,101212.63
2023-04-27T00:03:40.215Z,101212.00
2023-04-27T00:06:06.799Z,101204.78
2023-04-27T00:08:34.398Z,101200.44
2023-04-27T00:11:00.824Z,101200.44
2023-04-27T00:13:27.792Z,101200.66
2023-04-27T00:15:55.984Z,101197.75
2023-04-27T00:18:22.776Z,101204.97
2023-04-27T00:20:49.132Z,101197.75
2023-04-27T00:23:15.433Z,101200.44
2023-04-27T00:25:41.742Z,101206.41
2023-04-27T00:28:08.041Z,101190.13
2023-04-27T00:30:34.395Z,101203.56
2023-04-27T00:33:00.900Z,101200.88
2023-04-27T00:35:27.337Z,101194.88
2023-04-27T00:37:54.227Z,101199.44
2023-04-27T00:40:20.583Z,101197.13
2023-04-27T00:42:47.050Z,101197.13
2023-04-27T00:45:13.534Z,101199.63
2023-04-27T00:47:40.136Z,101199.44
2023-04-27T00:50:06.843Z,101199.22
2023-04-27T00:52:33.450Z,101200.66
2023-04-27T00:54:59.826Z,101199.22
2023-04-27T00:57:26.128Z,101201.91
2023-04-27T00:59:52.519Z,101198.38
2023-04-27T01:02:19.234Z,101200.03
2023-04-27T01:04:46.565Z,101195.91
2023-04-27T01:07:13.406Z,101203.38
2023-04-27T01:09:40.311Z,101205.59
2023-04-27T01:12:07.057Z,101207.69
2023-04-27T01:14:33.987Z,101209.97
2023-04-27T01:17:00.608Z,101204.41
2023-04-27T01:19:27.718Z,101211.41
2023-04-27T01:21:54.430Z,101212.03
2023-04-27T01:24:21.000Z,101212.84
2023-04-27T01:26:47.615Z,101216.97
2023-04-27T01:29:14.606Z,101211.00
2023-04-27T01:31:41.407Z,101210.78
2023-04-27T01:34:08.068Z,101214.31
2023-04-27T01:36:34.607Z,101218.84
2023-04-27T01:39:01.415Z,101217.59
2023-04-27T01:41:27.791Z,101220.06
2023-04-27T01:43:54.189Z,101227.94
2023-04-27T01:46:20.749Z,101226.69
2023-04-27T01:48:47.017Z,101227.34
2023-04-27T01:51:13.382Z,101229.38
2023-04-27T01:53:39.932Z,101233.31
2023-04-27T01:56:06.178Z,101236.63
2023-04-27T01:58:32.583Z,101231.47
2023-04-27T02:00:58.855Z,101236.63
2023-04-27T02:03:25.494Z,101235.41
2023-04-27T02:05:53.506Z,101235.59
2023-04-27T02:08:19.816Z,101234.94
2023-04-27T02:10:46.681Z,101232.72
2023-04-27T02:13:13.129Z,101232.06
2023-04-27T02:15:39.587Z,101239.09
2023-04-27T02:18:06.239Z,101247.56
2023-04-27T02:20:32.780Z,101241.56
2023-04-27T02:22:59.508Z,101248.19
2023-04-27T02:25:26.231Z,101251.06
2023-04-27T02:27:53.054Z,101247.56
2023-04-27T02:30:19.999Z,101251.72
2023-04-27T02:32:47.273Z,101254.81
2023-04-27T02:35:13.691Z,101253.97
2023-04-27T02:37:39.992Z,101250.03
2023-04-27T02:40:06.349Z,101260.38
2023-04-27T02:42:33.246Z,101251.09
2023-04-27T02:44:59.624Z,101251.50
2023-04-27T02:47:26.135Z,101261.41
2023-04-27T02:49:53.018Z,101255.66
2023-04-27T02:52:19.333Z,101256.88
2023-04-27T02:54:45.660Z,101261.41
2023-04-27T02:57:12.053Z,101252.72
2023-04-27T02:59:38.521Z,101251.09
2023-04-27T03:02:04.942Z,101262.88
2023-04-27T03:04:31.567Z,101261.81
2023-04-27T03:06:58.868Z,101264.09
2023-04-27T03:09:25.487Z,101264.72
2023-04-27T03:11:51.949Z,101258.75
2023-04-27T03:14:18.309Z,101263.47
2023-04-27T03:16:44.693Z,101263.69
2023-04-27T03:19:11.349Z,101268.03
2023-04-27T03:21:38.016Z,101273.41
2023-04-27T03:24:04.539Z,101271.75
2023-04-27T03:26:31.428Z,101274.66
2023-04-27T03:28:57.830Z,101271.75
2023-04-27T03:31:24.208Z,101275.25
2023-04-27T03:33:50.767Z,101275.88
2023-04-27T03:36:17.310Z,101282.69
2023-04-27T03:38:43.661Z,101288.88
2023-04-27T03:41:09.978Z,101283.94
2023-04-27T03:43:36.452Z,101294.25
2023-04-27T03:46:03.493Z,101291.16
2023-04-27T03:48:29.773Z,101303.75
2023-04-27T03:50:56.176Z,101303.16
2023-04-27T03:53:22.533Z,101309.75
2023-04-27T03:55:48.914Z,101310.78
2023-04-27T03:58:15.197Z,101316.75
2023-04-27T04:00:41.586Z,101318.84
2023-04-27T04:03:08.763Z,101316.16
2023-04-27T04:05:35.515Z,101318.00
2023-04-27T04:08:02.085Z,101311.78
2023-04-27T04:10:28.356Z,101319.66
2023-04-27T04:12:54.808Z,101320.28
2023-04-27T04:15:21.512Z,101326.91
2023-04-27T04:17:47.855Z,101322.34
2023-04-27T04:20:14.356Z,101327.91
2023-04-27T04:22:40.605Z,101331.44
2023-04-27T04:25:07.008Z,101332.25
2023-04-27T04:27:33.675Z,101339.88
2023-04-27T04:30:01.383Z,101339.47
2023-04-27T04:32:28.279Z,101341.56
2023-04-27T04:34:54.845Z,101340.72
2023-04-27T04:37:22.014Z,101338.88
2023-04-27T04:39:48.431Z,101348.56
2023-04-27T04:42:15.855Z,101345.50
2023-04-27T04:44:42.204Z,101351.88
2023-04-27T04:47:08.475Z,101344.44
2023-04-27T04:49:34.993Z,101350.84
2023-04-27T04:52:01.371Z,101350.03
2023-04-27T04:54:27.910Z,101353.31
2023-04-27T04:56:54.215Z,101360.97
2023-04-27T04:59:20.554Z,101363.25
2023-04-27T05:01:46.995Z,101369.66
2023-04-27T05:04:13.802Z,101370.25
2023-04-27T05:06:40.363Z,101370.06
2023-04-27T05:09:07.247Z,101367.97
2023-04-27T05:11:33.557Z,101370.84
2023-04-27T05:13:59.926Z,101372.31
2023-04-27T05:16:26.614Z,101370.06
2023-04-27T05:18:53.137Z,101374.38
2023-04-27T05:21:19.620Z,101377.47
2023-04-27T05:23:46.100Z,101374.38
2023-04-27T05:26:12.661Z,101372.34
2023-04-27T05:28:39.215Z,101373.34
2023-04-27T05:31:05.692Z,101377.06
2023-04-27T05:33:31.948Z,101374.59
2023-04-27T05:35:58.377Z,101378.31
2023-04-27T05:38:25.359Z,101379.53
2023-04-27T05:40:52.058Z,101384.72
2023-04-27T05:43:19.144Z,101384.28
2023-04-27T05:45:45.475Z,101385.31
2023-04-27T05:48:11.782Z,101379.34
2023-04-27T05:50:38.333Z,101382.22
2023-04-27T05:53:04.640Z,101383.28
2023-04-27T05:55:31.007Z,101379.94
2023-04-27T05:58:07.102Z,101381.59
2023-04-27T06:00:34.617Z,101388.41
2023-04-27T06:03:01.239Z,101380.78
2023-04-27T06:05:27.828Z,101387.78
2023-04-27T06:07:54.198Z,101377.47
2023-04-27T06:10:20.474Z,101381.59
2023-04-27T06:12:46.741Z,101386.16
2023-04-27T06:15:13.092Z,101380.16
2023-04-27T06:17:39.505Z,101387.78
2023-04-27T06:20:05.795Z,101377.66
2023-04-27T06:22:32.247Z,101386.34
2023-04-27T06:24:58.716Z,101393.38
2023-04-27T06:27:25.286Z,101389.03
2023-04-27T06:29:51.700Z,101391.53
2023-04-27T06:32:18.292Z,101386.16
2023-04-27T06:34:44.634Z,101397.09
2023-04-27T06:37:11.181Z,101396.25
2023-04-27T06:39:37.500Z,101399.75
2023-04-27T06:42:04.180Z,101400.56
2023-04-27T06:44:30.522Z,101401.22
2023-04-27T06:46:57.203Z,101394.19
2023-04-27T06:49:23.559Z,101402.44
2023-04-27T06:51:49.833Z,101398.13
2023-04-27T06:54:16.109Z,101403.91
2023-04-27T06:56:42.361Z,101398.53
2023-04-27T06:59:08.919Z,101404.94
2023-04-27T07:01:35.375Z,101409.47
2023-04-27T07:04:01.842Z,101403.91
2023-04-27T07:06:28.234Z,101407.63
2023-04-27T07:08:54.756Z,101411.94
2023-04-27T07:11:21.168Z,101411.09
2023-04-27T07:13:47.484Z,101405.13
2023-04-27T07:16:14.018Z,101407.81
2023-04-27T07:18:42.093Z,101413.19
2023-04-27T07:21:10.075Z,101411.31
2023-04-27T07:23:36.613Z,101413.00
2023-04-27T07:26:02.951Z,101410.09
2023-04-27T07:28:29.340Z,101419.41
2023-04-27T07:30:55.757Z,101418.97
2023-04-27T07:33:22.385Z,101417.31
2023-04-27T07:35:48.932Z,101413.81
2023-04-27T07:38:15.500Z,101418.56
2023-04-27T07:40:43.817Z,101427.47
2023-04-27T07:43:11.166Z,101415.28
2023-04-27T07:45:37.553Z,101408.25
2023-04-27T07:48:03.923Z,101417.31
2023-04-27T07:50:30.563Z,101422.28
2023-04-27T07:52:57.028Z,101426.22
2023-04-27T07:55:24.576Z,101421.25
2023-04-27T07:57:51.070Z,101418.16
2023-04-27T08:00:17.404Z,101421.25
2023-04-27T08:02:44.393Z,101421.66
2023-04-27T08:05:11.430Z,101422.28
2023-04-27T08:07:42.778Z,101423.72
2023-04-27T08:10:11.005Z,101431.16
2023-04-27T08:12:37.642Z,101425.38
2023-04-27T08:15:03.993Z,101422.09
2023-04-27T08:17:30.502Z,101426.81
2023-04-27T08:19:57.465Z,101422.09
2023-04-27T08:22:24.079Z,101420.41
2023-04-27T08:24:50.409Z,101421.44
2023-04-27T08:27:16.731Z,101421.44
2023-04-27T08:29:43.195Z,101422.50
2023-04-27T08:32:09.707Z,101420.41
2023-04-27T08:34:36.323Z,101425.97
2023-04-27T08:37:03.226Z,101424.53
2023-04-27T08:39:29.602Z,101427.22
2023-04-27T08:41:56.240Z,101429.91
2023-04-27T08:44:22.974Z,101434.47
2023-04-27T08:46:49.618Z,101431.97
2023-04-27T08:49:17.007Z,101429.09
2023-04-27T08:51:43.761Z,101427.44
2023-04-27T08:54:10.142Z,101432.59
2023-04-27T08:56:36.554Z,101432.81
2023-04-27T08:59:02.901Z,101427.84
2023-04-27T09:01:29.306Z,101426.22
2023-04-27T09:03:56.125Z,101429.91
2023-04-27T09:06:23.012Z,101422.69
2023-04-27T09:08:49.549Z,101418.34
2023-04-27T09:11:15.866Z,101424.75
2023-04-27T09:13:42.217Z,101418.56
2023-04-27T09:16:08.524Z,101427.22
2023-04-27T09:18:34.896Z,101418.56
2023-04-27T09:21:01.409Z,101431.97
2023-04-27T09:23:27.779Z,101431.97
2023-04-27T09:25:54.316Z,101425.97
2023-04-27T09:28:20.843Z,101429.69
2023-04-27T09:30:48.316Z,101415.47
2023-04-27T09:33:15.732Z,101421.44
2023-04-27T09:35:42.048Z,101420.59
2023-04-27T09:38:08.432Z,101422.69
2023-04-27T09:40:35.325Z,101422.69
2023-04-27T09:43:03.139Z,101428.66
2023-04-27T09:45:29.560Z,101425.38
2023-04-27T09:47:56.203Z,101428.25
2023-04-27T09:50:23.005Z,101426.22
2023-04-27T09:52:49.348Z,101429.09
2023-04-27T09:55:15.912Z,101429.91
2023-04-27T09:57:42.297Z,101423.72
2023-04-27T10:00:08.885Z,101429.28
2023-04-27T10:02:42.983Z,101429.91
2023-04-27T10:05:18.963Z,101424.72
2023-04-27T10:07:45.317Z,101420.00
2023-04-27T10:10:11.738Z,101416.47
2023-04-27T10:12:38.180Z,101418.34
2023-04-27T10:15:04.526Z,101415.66
2023-04-27T10:17:31.089Z,101422.88
2023-04-27T10:19:58.564Z,101422.69
2023-04-27T10:22:25.069Z,101417.50
2023-04-27T10:24:51.393Z,101417.31
2023-04-27T10:27:17.688Z,101416.47
2023-04-27T10:29:44.429Z,101418.56
2023-04-27T10:32:10.879Z,101415.03
2023-04-27T10:34:37.305Z,101415.66
2023-04-27T10:37:03.651Z,101416.47
2023-04-27T10:39:43.722Z,101412.16
2023-04-27T10:42:13.831Z,101410.31
2023-04-27T10:44:40.673Z,101410.50
2023-04-27T10:47:07.114Z,101408.63
2023-04-27T10:49:33.407Z,101406.78
2023-04-27T10:51:59.888Z,101409.66
2023-04-27T10:54:26.277Z,101410.50
2023-04-27T10:56:52.878Z,101412.16
2023-04-27T10:59:19.292Z,101417.31
2023-04-27T11:01:45.774Z,101410.09
2023-04-27T11:04:12.289Z,101407.19
2023-04-27T11:06:39.020Z,101420.00
2023-04-27T11:09:05.622Z,101412.16
2023-04-27T11:11:32.395Z,101414.84
2023-04-27T11:13:58.773Z,101410.53
2023-04-27T11:16:25.426Z,101411.75
2023-04-27T11:18:51.838Z,101409.47
2023-04-27T11:21:18.420Z,101406.78
2023-04-27T11:23:44.931Z,101402.06
2023-04-27T11:26:11.443Z,101408.03
2023-04-27T11:28:37.876Z,101400.81
2023-04-27T11:31:04.306Z,101410.53
2023-04-27T11:33:31.517Z,101405.75
2023-04-27T11:35:58.249Z,101413.00
2023-04-27T11:38:24.642Z,101415.88
2023-04-27T11:40:51.176Z,101415.47
2023-04-27T11:43:17.458Z,101415.88
2023-04-27T11:45:43.939Z,101409.47
2023-04-27T11:48:10.327Z,101409.91
2023-04-27T11:50:36.919Z,101420.41
2023-04-27T11:53:03.521Z,101421.25
2023-04-27T11:55:29.919Z,101416.47
2023-04-27T11:57:56.532Z,101421.66
2023-04-27T12:00:23.173Z,101421.25
2023-04-27T12:02:49.726Z,101418.97
2023-04-27T12:05:16.368Z,101416.50
2023-04-27T12:07:42.842Z,101418.16
2023-04-27T12:10:09.456Z,101421.66
2023-04-27T12:12:37.433Z,101414.44
2023-04-27T12:15:03.683Z,101421.25
2023-04-27T12:17:30.110Z,101423.94
2023-04-27T12:19:56.741Z,101415.69
2023-04-27T12:22:23.157Z,101424.13
2023-04-27T12:24:49.453Z,101426.22
2023-04-27T12:27:15.796Z,101426.03
2023-04-27T12:29:42.387Z,101437.34
2023-04-27T12:32:09.100Z,101438.19
2023-04-27T12:34:35.780Z,101430.34
2023-04-27T12:37:02.233Z,101431.78
2023-04-27T12:39:28.817Z,101430.34
2023-04-27T12:41:55.194Z,101431.59
2023-04-27T12:44:21.714Z,101437.75
2023-04-27T12:46:48.228Z,101436.09
2023-04-27T12:49:14.888Z,101436.72
2023-04-27T12:51:41.402Z,101444.56
2023-04-27T12:54:07.825Z,101432.81
2023-04-27T12:56:34.186Z,101432.38
2023-04-27T12:59:01.202Z,101441.88
2023-04-27T13:01:27.911Z,101431.78
2023-04-27T13:03:54.433Z,101432.78
2023-04-27T13:06:21.161Z,101427.84
2023-04-27T13:08:47.447Z,101435.25
2023-04-27T13:11:13.739Z,101428.63
2023-04-27T13:13:40.219Z,101438.38
2023-04-27T13:16:06.695Z,101425.16
2023-04-27T13:18:35.019Z,101433.41
2023-04-27T13:21:02.304Z,101433.81
2023-04-27T13:23:28.705Z,101442.28
2023-04-27T13:25:55.323Z,101429.06
2023-04-27T13:28:21.725Z,101433.59
2023-04-27T13:30:48.116Z,101436.69
2023-04-27T13:33:22.507Z,101440.63
2023-04-27T13:35:50.025Z,101437.72
2023-04-27T13:38:16.475Z,101429.06
2023-04-27T13:40:43.250Z,101432.56
2023-04-27T13:43:09.600Z,101431.94
2023-04-27T13:45:36.012Z,101428.88
2023-04-27T13:48:02.565Z,101418.75
2023-04-27T13:50:29.144Z,101427.03
2023-04-27T13:52:55.686Z,101423.50
2023-04-27T13:55:22.114Z,101417.31
2023-04-27T13:57:48.933Z,101415.22
2023-04-27T14:00:15.519Z,101406.59
2023-04-27T14:02:42.080Z,101414.63
2023-04-27T14:05:08.736Z,101409.06
2023-04-27T14:07:35.174Z,101415.88
2023-04-27T14:10:01.508Z,101420.84
2023-04-27T14:12:28.176Z,101412.34
2023-04-27T14:14:55.459Z,101414.84
2023-04-27T14:17:23.230Z,101415.03
2023-04-27T14:19:49.847Z,101416.06
2023-04-27T14:22:16.342Z,101413.38
2023-04-27T14:24:42.736Z,101410.91
2023-04-27T14:27:09.181Z,101411.94
2023-04-27T14:29:35.583Z,101409.06
2023-04-27T14:32:02.054Z,101409.88
2023-04-27T14:34:28.629Z,101404.72
2023-04-27T14:36:55.180Z,101413.78
2023-04-27T14:39:21.698Z,101413.78
2023-04-27T14:41:48.040Z,101416.66
2023-04-27T14:44:14.590Z,101413.78
2023-04-27T14:46:41.096Z,101413.19
2023-04-27T14:49:07.603Z,101419.16
2023-04-27T14:51:34.233Z,101417.50
2023-04-27T14:54:00.660Z,101420.19
2023-04-27T14:56:26.974Z,101416.66
2023-04-27T14:58:55.640Z,101412.97
2023-04-27T15:01:22.326Z,101415.66
2023-04-27T15:03:48.949Z,101416.66
2023-04-27T15:06:15.596Z,101411.94
2023-04-27T15:08:41.958Z,101410.28
2023-04-27T15:11:08.388Z,101413.97
2023-04-27T15:13:34.802Z,101415.66
2023-04-27T15:16:01.322Z,101419.16
2023-04-27T15:18:27.884Z,101417.50
2023-04-27T15:20:54.246Z,101415.84
2023-04-27T15:23:20.579Z,101416.91
2023-04-27T15:25:47.527Z,101418.53
2023-04-27T15:28:13.968Z,101418.75
2023-04-27T15:30:40.432Z,101418.75
2023-04-27T15:33:08.160Z,101408.84
2023-04-27T15:35:37.358Z,101413.97
2023-04-27T15:38:03.726Z,101422.88
2023-04-27T15:40:30.048Z,101411.31
2023-04-27T15:42:56.394Z,101406.78
2023-04-27T15:45:22.781Z,101406.97
2023-04-27T15:47:49.166Z,101411.53
2023-04-27T15:50:17.037Z,101404.50
2023-04-27T15:52:44.341Z,101405.13
2023-04-27T15:55:10.751Z,101403.47
2023-04-27T15:57:37.913Z,101401.81
2023-04-27T16:00:04.232Z,101401.81
2023-04-27T16:02:30.777Z,101399.97
2023-04-27T16:04:57.234Z,101401.81
2023-04-27T16:07:23.574Z,101394.78
2023-04-27T16:09:51.076Z,101386.53
2023-04-27T16:12:17.373Z,101395.44
2023-04-27T16:14:43.707Z,101379.34
2023-04-27T16:17:10.520Z,101385.72
2023-04-27T16:19:38.642Z,101393.75
2023-04-27T16:22:05.037Z,101387.59
2023-04-27T16:24:31.375Z,101384.06
2023-04-27T16:26:59.721Z,101380.34
2023-04-27T16:29:26.067Z,101380.34
2023-04-27T16:31:52.825Z,101378.69
2023-04-27T16:34:19.425Z,101383.47
2023-04-27T16:36:45.951Z,101378.91
2023-04-27T16:39:12.694Z,101385.09
2023-04-27T16:41:39.159Z,101379.72
2023-04-27T16:44:05.539Z,101374.38
2023-04-27T16:46:31.857Z,101378.69
2023-04-27T16:48:58.240Z,101382.41
2023-04-27T16:51:24.628Z,101380.56
2023-04-27T16:53:51.481Z,101385.94
2023-04-27T16:56:17.893Z,101382.41
2023-04-27T16:58:44.189Z,101384.06
2023-04-27T17:01:10.646Z,101384.25
2023-04-27T17:03:37.123Z,101394.00
2023-04-27T17:06:03.606Z,101392.50
2023-04-27T17:08:30.791Z,101399.34
2023-04-27T17:10:57.811Z,101398.72
2023-04-27T17:13:24.207Z,101396.88
2023-04-27T17:15:51.307Z,101395.44
2023-04-27T17:18:17.765Z,101386.94
2023-04-27T17:20:44.238Z,101383.66
2023-04-27T17:23:10.559Z,101390.25
2023-04-27T17:25:37.567Z,101392.50
2023-04-27T17:28:03.956Z,101389.41
2023-04-27T17:30:30.770Z,101396.44
2023-04-27T17:32:57.751Z,101391.91
2023-04-27T17:35:24.260Z,101389.22
2023-04-27T17:37:50.905Z,101390.66
2023-04-27T17:40:17.312Z,101390.25
2023-04-27T17:42:43.812Z,101379.50
2023-04-27T17:45:10.198Z,101381.75
2023-04-27T17:47:36.523Z,101390.47
2023-04-27T17:50:03.368Z,101389.03
2023-04-27T17:52:29.787Z,101387.78
2023-04-27T17:54:56.429Z,101386.34
2023-04-27T17:57:23.103Z,101385.31
2023-04-27T17:59:49.717Z,101391.09
2023-04-27T18:02:16.383Z,101389.25
2023-04-27T18:04:42.827Z,101387.19
2023-04-27T18:07:09.204Z,101395.25
2023-04-27T18:09:35.518Z,101392.97
2023-04-27T18:12:03.059Z,101399.78
2023-04-27T18:14:29.344Z,101401.81
2023-04-27T18:16:55.817Z,101400.19
2023-04-27T18:19:22.218Z,101404.31
2023-04-27T18:21:48.574Z,101407.19
2023-04-27T18:24:15.242Z,101405.53
2023-04-27T18:26:41.624Z,101403.06
2023-04-27T18:29:08.199Z,101412.78
2023-04-27T18:31:34.880Z,101417.13
2023-04-27T18:34:01.340Z,101415.03
2023-04-27T18:36:28.136Z,101421.66
2023-04-27T18:38:54.535Z,101418.97
2023-04-27T18:41:20.959Z,101422.91
2023-04-27T18:43:47.484Z,101420.22
2023-04-27T18:46:13.866Z,101428.47
2023-04-27T18:48:40.205Z,101434.28
2023-04-27T18:51:06.781Z,101436.31
2023-04-27T18:53:33.140Z,101436.97
2023-04-27T18:55:59.533Z,101444.19
2023-04-27T18:58:26.072Z,101443.78
2023-04-27T19:00:53.035Z,101450.22
2023-04-27T19:03:20.073Z,101442.56
2023-04-27T19:05:46.549Z,101446.91
2023-04-27T19:08:13.073Z,101450.00
2023-04-27T19:10:39.432Z,101453.09
2023-04-27T19:13:05.740Z,101453.69
2023-04-27T19:15:32.508Z,101463.44
2023-04-27T19:18:09.367Z,101450.22
2023-04-27T19:20:37.210Z,101452.69
2023-04-27T19:23:05.309Z,101446.69
2023-04-27T19:25:31.706Z,101451.47
2023-04-27T19:27:58.019Z,101449.19
2023-04-27T19:30:27.917Z,101444.81
2023-04-27T19:32:54.215Z,101452.66
2023-04-27T19:35:20.981Z,101455.31
2023-04-27T19:37:47.320Z,101447.63
2023-04-27T19:40:13.802Z,101443.47
2023-04-27T19:42:40.576Z,101449.47
2023-04-27T19:45:07.003Z,101449.25
2023-04-27T19:47:33.329Z,101450.66
2023-04-27T19:49:59.840Z,101441.75
2023-04-27T19:52:26.223Z,101443.19
2023-04-27T19:54:52.658Z,101449.75
2023-04-27T19:57:18.995Z,101449.50
2023-04-27T20:02:29.463Z,101446.13
2023-04-27T20:04:56.893Z,101446.88
2023-04-27T20:07:23.623Z,101442.28
2023-04-27T20:09:50.136Z,101452.81
2023-04-27T20:12:40.226Z,101445.72
2023-04-27T20:15:02.908Z,101445.88
2023-04-27T20:17:29.272Z,101444.19
2023-04-27T20:19:55.680Z,101445.84
2023-04-27T20:22:22.195Z,101459.28
2023-04-27T20:24:48.750Z,101443.88
2023-04-27T20:27:15.432Z,101445.88
2023-04-27T20:29:41.984Z,101436.72
2023-04-27T20:32:08.436Z,101437.28
2023-04-27T20:34:36.314Z,101446.16
2023-04-27T20:37:02.615Z,101441.53
2023-04-27T20:39:28.959Z,101433.63
2023-04-27T20:41:56.144Z,101438.78
2023-04-27T20:44:22.820Z,101437.09
2023-04-27T20:46:49.172Z,101436.03
2023-04-27T20:49:24.714Z,101436.47
2023-04-27T20:51:58.301Z,101431.06
2023-04-27T20:54:24.758Z,101430.91
2023-04-27T20:56:51.191Z,101427.84
2023-04-27T20:59:17.596Z,101420.28
2023-04-27T21:01:44.043Z,101427.03
2023-04-27T21:04:10.659Z,101427.69
2023-04-27T21:06:37.110Z,101422.91
2023-04-27T21:09:03.502Z,101418.03
2023-04-27T21:11:29.990Z,101418.78
2023-04-27T21:13:56.657Z,101418.50
2023-04-27T21:16:23.317Z,101424.63
2023-04-27T21:18:49.634Z,101421.03
2023-04-27T21:21:16.042Z,101422.84
2023-04-27T21:23:42.781Z,101414.09
2023-04-27T21:26:09.172Z,101423.00
2023-04-27T21:28:35.668Z,101421.13
2023-04-27T21:31:02.247Z,101419.97
2023-04-27T21:33:28.616Z,101410.16
2023-04-27T21:35:55.231Z,101414.88
2023-04-27T21:38:21.558Z,101417.50
2023-04-27T21:40:48.001Z,101416.22
2023-04-27T21:43:14.360Z,101419.28
2023-04-27T21:45:40.721Z,101414.22
2023-04-27T21:48:07.341Z,101413.78
2023-04-27T21:50:33.920Z,101414.59
2023-04-27T21:53:00.616Z,101418.81
2023-04-27T21:55:27.340Z,101412.59
2023-04-27T21:57:53.796Z,101421.53
2023-04-27T22:00:20.212Z,101412.72
2023-04-27T22:02:47.675Z,101420.13
2023-04-27T22:05:14.918Z,101412.63
2023-04-27T22:07:41.400Z,101409.25
2023-04-27T22:10:07.901Z,101418.53
2023-04-27T22:12:34.720Z,101409.16
2023-04-27T22:15:01.600Z,101405.75
2023-04-27T22:17:29.923Z,101408.81
2023-04-27T22:19:57.355Z,101408.38
2023-04-27T22:22:23.944Z,101413.50
2023-04-27T22:24:50.693Z,101412.25
2023-04-27T22:27:17.640Z,101406.59
2023-04-27T22:29:44.452Z,101407.75
2023-04-27T22:32:10.871Z,101419.59
2023-04-27T22:34:37.492Z,101415.81
2023-04-27T22:37:04.151Z,101420.09
2023-04-27T22:39:30.521Z,101425.81
2023-04-27T22:41:58.793Z,101428.00
2023-04-27T22:44:25.122Z,101427.84
2023-04-27T22:46:51.531Z,101420.91
2023-04-27T22:49:18.938Z,101424.25
2023-04-27T22:51:45.521Z,101423.25
2023-04-27T22:54:12.303Z,101425.00
2023-04-27T22:56:39.981Z,101425.09
2023-04-27T22:59:06.333Z,101420.13
2023-04-27T23:01:32.771Z,101422.69
2023-04-27T23:03:59.476Z,101418.78
2023-04-27T23:06:25.978Z,101419.44
2023-04-27T23:08:52.418Z,101422.63
2023-04-27T23:11:19.048Z,101419.53
2023-04-27T23:13:45.390Z,101415.84
2023-04-27T23:16:12.022Z,101425.22
2023-04-27T23:18:38.721Z,101414.88
2023-04-27T23:21:05.113Z,101415.31
2023-04-27T23:23:32.240Z,101418.47
2023-04-27T23:25:58.653Z,101417.03
2023-04-27T23:28:25.032Z,101416.44
2023-04-27T23:30:51.548Z,101415.03
2023-04-27T23:33:17.973Z,101410.88
2023-04-27T23:35:44.327Z,101419.44
2023-04-27T23:38:10.852Z,101411.56
2023-04-27T23:40:37.517Z,101409.28
2023-04-27T23:43:04.164Z,101400.84
2023-04-27T23:45:30.572Z,101401.06
2023-04-27T23:47:59.438Z,101400.47
2023-04-27T23:50:26.968Z,101398.22
2023-04-27T23:52:53.317Z,101389.28
2023-04-27T23:55:19.684Z,101387.88
2023-04-27T23:57:46.227Z,101383.75
